Terminal Aerodrome Forecast
Issued by NWS

Home | Current Version | Previous Version | Text Only | Print | Product List | Glossary On
Versions: 1 2 3 4 5 6 7 8 9 10 11 12 13 14 15 16
000
FTUS45 KTFX 202300
TAFLWT
TAF
KLWT 202321Z 2100/2124 30015G25KT P6SM SKC
     FM210200 28010KT P6SM SCT250
     FM211000 VRB05KT P6SM SCT250=

USA.gov is the U.S. government's official web portal to all federal, state and local government web resources and services.